Sevastopol, Wisconsin
Current Conditions -  °F | °C
As of 12:15 PM on Thursday 27 Nov 2014 (Local Time) from KSUE Reporting Station
Broken Clouds Broken Clouds  
Wind Chill:   Ceiling: 2800
Heat Index: 16°   Visibility: 10mi
Dew Point:   Wind: 13mph
Humidity: 58%   Direction: 310°NW
Pressure: 30.32"   Gusts: NA
Location:  44.7888°N, 87.4464°W
Report Text: KSUE 271815Z AUTO 31011KT 10SM BKN028 M09/M16 A3032 RMK AO1
Loading
Personal Weather Stations






























Interactive Weather Map New forecast layout! Learn more

10-Day Weather Forecast

Advertisements
Track Severe Weather on mobile